Time;durP1;ratioP1;P1;durP2;ratioP2;P2;SDS_P1;SDS_P2;PMS_P1;PMS_P2;Temp;Humidity;BMP_temperature;BMP_pressure;BME280_temperature;BME280_humidity;BME280_pressure;Samples;Min_cycle;Max_cycle;Signal;HPM_P1;HPM_P2
2022/09/07 00:02:21;;;;;;;5.75;1.65;;;;;;;16.27;95.90;97174.22;4865536;29;20232;-64
2022/09/07 00:04:48;;;;;;;2.92;1.40;;;;;;;16.33;94.18;97165.66;4873907;29;20041;-64
2022/09/07 00:07:14;;;;;;;9.85;1.50;;;;;;;16.74;89.82;97177.88;4870859;29;20493;-64
2022/09/07 00:09:41;;;;;;;2.17;1.10;;;;;;;17.11;87.01;97172.72;4855147;29;20408;-64
2022/09/07 00:12:08;;;;;;;5.60;1.58;;;;;;;17.52;84.16;97162.94;4870647;29;20045;-65
2022/09/07 00:14:34;;;;;;;5.25;1.50;;;;;;;17.59;83.78;97161.72;4853696;29;20529;-65
2022/09/07 00:17:01;;;;;;;3.75;1.52;;;;;;;17.67;83.13;97144.59;4859324;29;20060;-64
2022/09/07 00:19:27;;;;;;;8.15;1.67;;;;;;;17.68;83.16;97146.22;4852955;29;20049;-65
2022/09/07 00:21:54;;;;;;;5.70;1.67;;;;;;;17.70;83.04;97145.91;4852536;29;20064;-65
2022/09/07 00:24:20;;;;;;;6.55;1.60;;;;;;;17.65;83.22;97135.84;4853299;29;20042;-64
2022/09/07 00:26:47;;;;;;;2.60;1.40;;;;;;;17.57;84.03;97142.06;4856060;29;20060;-64
2022/09/07 00:29:13;;;;;;;2.47;1.20;;;;;;;17.52;84.45;97137.50;4869664;29;20651;-65
2022/09/07 00:31:40;;;;;;;5.72;1.92;;;;;;;17.53;84.52;97139.09;4871365;29;20417;-65
2022/09/07 00:34:06;;;;;;;8.55;1.73;;;;;;;17.48;85.25;97131.00;4875074;29;20045;-65
2022/09/07 00:36:33;;;;;;;3.08;1.50;;;;;;;17.41;85.66;97129.50;4874008;29;20497;-64
2022/09/07 00:38:59;;;;;;;4.72;1.33;;;;;;;17.40;85.75;97125.09;4856820;29;20105;-65
2022/09/07 00:41:26;;;;;;;4.70;1.73;;;;;;;17.31;86.98;97123.41;4871924;29;20041;-64
2022/09/07 00:43:58;;;;;;;2.67;1.27;;;;;;;17.29;87.00;97112.75;4871486;29;20105;-64
2022/09/07 00:46:28;;;;;;;5.15;1.45;;;;;;;17.22;87.70;97113.16;4861624;29;20041;-65
2022/09/07 00:49:03;;;;;;;4.90;1.77;;;;;;;17.22;87.75;97109.59;4873913;29;20135;-63
2022/09/07 00:51:37;;;;;;;5.93;1.75;;;;;;;17.11;88.74;97106.22;4858968;29;20065;-64
2022/09/07 00:54:08;;;;;;;6.43;1.70;;;;;;;17.15;88.64;97102.56;4879585;29;20048;-64
2022/09/07 00:56:38;;;;;;;3.47;1.85;;;;;;;17.14;89.23;97089.22;4861094;29;20053;-64
2022/09/07 00:59:07;;;;;;;6.47;1.55;;;;;;;17.22;89.24;97091.25;4855937;29;20218;-64
2022/09/07 01:01:34;;;;;;;5.72;1.83;;;;;;;17.28;89.27;97091.94;4860949;29;20517;-64
2022/09/07 01:04:02;;;;;;;5.70;1.92;;;;;;;17.37;89.05;97086.59;4873004;29;20132;-65
2022/09/07 01:06:32;;;;;;;5.22;1.77;;;;;;;17.48;88.84;97088.03;4866205;29;20068;-64
2022/09/07 01:09:02;;;;;;;5.25;2.10;;;;;;;17.49;89.07;97078.69;4863293;29;20055;-64
2022/09/07 01:11:31;;;;;;;5.05;1.90;;;;;;;17.53;89.23;97076.16;4872945;29;20068;-65
2022/09/07 01:13:58;;;;;;;6.60;2.45;;;;;;;17.51;89.59;97081.13;4870456;29;20079;-64
2022/09/07 01:16:45;;;;;;;6.28;1.95;;;;;;;17.50;89.82;97082.22;4856903;29;20065;-65
2022/09/07 01:19:39;;;;;;;7.70;2.28;;;;;;;17.51;90.22;97087.41;4877584;29;20183;-63
2022/09/07 01:22:11;;;;;;;6.68;2.15;;;;;;;17.49;90.55;97078.69;4868616;29;20041;-65
2022/09/07 01:24:57;;;;;;;5.32;2.00;;;;;;;17.54;90.67;97078.59;4881738;29;20048;-65
2022/09/07 01:27:43;;;;;;;4.15;1.98;;;;;;;17.52;90.84;97074.53;4860210;29;20049;-65
2022/09/07 01:30:13;;;;;;;5.32;1.90;;;;;;;17.51;91.58;97083.88;4867559;29;20092;-65
2022/09/07 01:33:17;;;;;;;6.45;2.38;;;;;;;17.59;91.71;97085.06;4854542;29;20052;-65
2022/09/07 01:35:53;;;;;;;5.85;2.17;;;;;;;17.70;91.46;97091.16;4860323;29;20041;-64
2022/09/07 01:38:26;;;;;;;5.97;3.05;;;;;;;17.84;90.98;97091.94;4872488;29;20050;-65
2022/09/07 01:41:02;;;;;;;6.25;2.00;;;;;;;18.06;89.89;97093.13;4871861;29;20465;-64
2022/09/07 01:43:50;;;;;;;6.32;2.22;;;;;;;18.26;88.90;97097.38;4859597;29;20045;-65
2022/09/07 01:46:26;;;;;;;5.22;2.10;;;;;;;18.43;87.58;97099.41;4862493;29;20045;-63
2022/09/07 01:49:00;;;;;;;4.60;2.30;;;;;;;18.51;86.92;97097.88;4869127;29;20158;-64
2022/09/07 01:51:30;;;;;;;4.82;2.00;;;;;;;18.54;86.90;97102.72;4861557;29;20041;-64
2022/09/07 01:54:05;;;;;;;3.95;2.10;;;;;;;18.56;86.65;97099.69;4863915;29;20037;-64
2022/09/07 01:56:44;;;;;;;4.72;2.63;;;;;;;18.51;87.07;97100.63;4863561;29;20047;-63
2022/09/07 01:59:13;;;;;;;6.65;2.80;;;;;;;18.45;87.51;97104.59;4873902;29;20045;-65
2022/09/07 02:01:57;;;;;;;6.38;2.05;;;;;;;18.37;88.16;97108.06;4871167;29;20052;-64
2022/09/07 02:04:30;;;;;;;6.35;2.40;;;;;;;18.39;87.83;97103.91;4873464;29;20659;-64
2022/09/07 02:07:19;;;;;;;7.72;2.47;;;;;;;18.37;87.78;97105.34;4862127;29;20045;-64
2022/09/07 02:09:55;;;;;;;4.45;2.30;;;;;;;18.37;87.32;97113.56;4865152;29;20068;-65
2022/09/07 02:12:47;;;;;;;5.10;2.20;;;;;;;18.35;87.65;97122.09;4869940;29;20065;-64
2022/09/07 02:15:19;;;;;;;5.93;2.33;;;;;;;18.40;87.44;97129.41;4872789;29;20045;-64
2022/09/07 02:17:56;;;;;;;4.43;2.08;;;;;;;18.46;86.19;97155.56;4854152;29;20055;-64
2022/09/07 02:20:27;;;;;;;6.13;2.00;;;;;;;18.51;85.49;97166.44;4859426;29;20049;-65
2022/09/07 02:22:57;;;;;;;;;;;;;;;18.64;82.42;97177.66;4871565;29;20048;-64
2022/09/07 02:25:28;;;;;;;5.10;1.63;;;;;;;18.77;80.86;97182.28;4867232;29;20326;-65
2022/09/07 02:28:09;;;;;;;6.78;1.90;;;;;;;18.73;80.03;97195.00;4870009;29;20473;-65
2022/09/07 02:30:36;;;;;;;6.35;2.13;;;;;;;18.61;80.66;97186.50;4869396;29;20064;-65
2022/09/07 02:33:03;;;;;;;7.82;2.03;;;;;;;18.50;81.39;97185.91;4861864;29;20046;-64
2022/09/07 02:35:29;;;;;;;9.70;2.42;;;;;;;18.37;82.75;97201.25;4853990;29;20045;-65
2022/09/07 02:37:59;;;;;;;6.00;2.08;;;;;;;18.25;84.04;97197.16;4853849;29;20050;-64
2022/09/07 02:40:26;;;;;;;3.83;1.80;;;;;;;18.21;84.24;97201.63;4853643;29;20291;-65
2022/09/07 02:42:52;;;;;;;6.97;1.92;;;;;;;18.11;85.31;97199.06;4866411;29;20100;-64
2022/09/07 02:45:19;;;;;;;5.97;1.88;;;;;;;18.06;86.04;97208.97;4872086;29;20040;-64
2022/09/07 02:47:56;;;;;;;8.35;2.88;;;;;;;17.98;86.87;97203.44;4870923;29;20172;-65
2022/09/07 02:51:01;;;;;;;3.55;2.00;;;;;;;17.91;87.46;97201.09;4871598;29;20045;-65
2022/09/07 02:53:46;;;;;;;7.40;2.38;;;;;;;17.90;87.81;97202.19;4866278;29;20053;-64
2022/09/07 02:56:21;;;;;;;4.50;1.77;;;;;;;17.86;87.92;97199.25;4867658;29;20102;-64
2022/09/07 02:58:53;;;;;;;5.47;1.98;;;;;;;17.79;88.41;97194.19;4854250;29;20407;-64
2022/09/07 03:01:45;;;;;;;4.20;2.17;;;;;;;17.75;88.91;97179.47;4864551;29;20053;-65
2022/09/07 03:04:35;;;;;;;5.78;1.90;;;;;;;17.70;89.06;97176.03;4857241;29;20081;-64
2022/09/07 03:07:09;;;;;;;6.68;2.50;;;;;;;17.66;88.79;97176.63;4858111;29;20045;-64
2022/09/07 03:09:40;;;;;;;6.97;1.85;;;;;;;17.56;90.03;97176.81;4853085;29;20073;-64
2022/09/07 03:12:07;;;;;;;7.32;2.25;;;;;;;17.12;93.56;97181.72;4862251;29;20045;-64
2022/09/07 03:14:35;;;;;;;5.60;2.28;;;;;;;16.82;96.07;97183.81;4854916;29;20044;-64
2022/09/07 03:17:01;;;;;;;7.18;3.15;;;;;;;16.89;95.11;97195.97;4856439;29;20556;-64
2022/09/07 03:19:28;;;;;;;5.45;2.20;;;;;;;16.88;95.51;97190.84;4853816;29;20045;-65
2022/09/07 03:21:54;;;;;;;4.38;2.30;;;;;;;16.73;96.93;97186.41;4868024;29;20043;-64
2022/09/07 03:24:21;;;;;;;6.57;2.60;;;;;;;16.74;96.63;97194.28;4871094;29;20037;-65
2022/09/07 03:26:50;;;;;;;7.80;2.78;;;;;;;16.52;98.13;97189.44;4869046;29;20045;-65
2022/09/07 03:29:18;;;;;;;7.95;3.00;;;;;;;16.28;99.76;97176.66;4864040;29;20045;-65
2022/09/07 03:31:45;;;;;;;7.47;2.45;;;;;;;16.44;98.66;97177.25;4853876;29;20048;-65
2022/09/07 03:34:11;;;;;;;7.15;3.20;;;;;;;16.52;97.98;97179.31;4878343;29;20040;-64
2022/09/07 03:36:38;;;;;;;5.03;2.05;;;;;;;16.47;98.46;97178.59;4891302;29;20041;-65
2022/09/07 03:39:06;;;;;;;5.70;2.42;;;;;;;16.29;99.76;97188.41;4876934;29;20080;-65
2022/09/07 03:41:32;;;;;;;5.60;2.38;;;;;;;16.16;100.00;97185.28;4873286;29;20056;-64
2022/09/07 03:44:03;;;;;;;7.38;2.85;;;;;;;16.01;100.00;97180.00;4871819;29;20045;-64
2022/09/07 03:46:31;;;;;;;9.82;3.13;;;;;;;15.86;100.00;97187.25;4871970;29;20060;-64
2022/09/07 03:48:58;;;;;;;5.45;2.70;;;;;;;15.84;100.00;97186.72;4871586;29;20532;-64
2022/09/07 03:51:25;;;;;;;8.75;2.90;;;;;;;15.89;100.00;97183.97;4886521;29;20040;-65
2022/09/07 03:53:51;;;;;;;5.47;2.45;;;;;;;15.92;100.00;97177.91;4875663;29;20042;-64
2022/09/07 03:56:22;;;;;;;6.25;2.88;;;;;;;15.96;100.00;97181.69;4871473;29;20061;-65
2022/09/07 03:58:50;;;;;;;5.07;2.47;;;;;;;15.98;100.00;97175.94;4872049;29;20049;-65
2022/09/07 04:01:23;;;;;;;8.15;3.00;;;;;;;16.00;100.00;97184.69;4871744;29;20060;-64
2022/09/07 04:03:50;;;;;;;4.90;2.55;;;;;;;16.03;100.00;97184.06;4864737;29;20109;-64
2022/09/07 04:06:18;;;;;;;5.05;2.53;;;;;;;15.88;100.00;97185.03;4857153;29;20505;-65
2022/09/07 04:08:45;;;;;;;6.80;3.03;;;;;;;15.59;100.00;97191.38;4857231;29;20053;-64
2022/09/07 04:11:15;;;;;;;6.00;3.08;;;;;;;15.63;100.00;97186.97;4868655;29;20056;-64
2022/09/07 04:13:43;;;;;;;8.18;3.22;;;;;;;15.55;100.00;97196.59;4863064;29;20540;-65
2022/09/07 04:16:15;;;;;;;7.07;3.10;;;;;;;15.54;100.00;97194.16;4856594;29;20053;-63
2022/09/07 04:18:42;;;;;;;5.75;3.00;;;;;;;15.41;100.00;97199.19;4860688;29;20536;-65
2022/09/07 04:21:10;;;;;;;8.68;3.58;;;;;;;15.20;100.00;97193.13;4856367;29;20049;-65
2022/09/07 04:23:38;;;;;;;6.70;3.33;;;;;;;15.08;100.00;97198.97;4865622;29;20052;-65
2022/09/07 04:26:05;;;;;;;9.10;4.00;;;;;;;15.13;100.00;97203.53;4860116;29;20049;-64
2022/09/07 04:28:31;;;;;;;5.70;3.00;;;;;;;15.23;100.00;97208.09;4877503;29;20048;-66
2022/09/07 04:31:01;;;;;;;7.10;3.50;;;;;;;15.07;100.00;97203.59;4867458;29;20137;-66
2022/09/07 04:33:32;;;;;;;6.50;3.00;;;;;;;14.95;100.00;97205.88;4873362;29;20470;-66
2022/09/07 04:35:59;;;;;;;7.43;3.25;;;;;;;14.69;100.00;97201.41;4857107;29;20053;-65
2022/09/07 04:38:27;;;;;;;8.45;3.88;;;;;;;14.64;100.00;97201.44;4877467;29;20052;-65
2022/09/07 04:40:59;;;;;;;8.52;4.00;;;;;;;14.60;100.00;97205.81;4885971;29;20433;-66
2022/09/07 04:43:26;;;;;;;7.22;3.35;;;;;;;14.59;100.00;97195.19;4868871;29;20462;-65
2022/09/07 04:45:52;;;;;;;7.75;3.47;;;;;;;14.57;100.00;97188.09;4855855;29;20052;-65
2022/09/07 04:48:19;;;;;;;9.20;3.25;;;;;;;14.55;100.00;97194.94;4872495;29;20564;-65
2022/09/07 04:50:46;;;;;;;11.43;3.63;;;;;;;14.59;100.00;97196.00;4874921;29;20044;-66
2022/09/07 04:53:13;;;;;;;5.35;3.92;;;;;;;14.51;100.00;97202.88;4870926;29;20044;-65
2022/09/07 04:55:39;;;;;;;9.55;3.85;;;;;;;14.40;100.00;97195.84;4873109;29;20060;-66
2022/09/07 04:58:06;;;;;;;6.38;3.03;;;;;;;14.49;100.00;97201.53;4870047;29;20048;-66
2022/09/07 05:00:32;;;;;;;5.93;3.13;;;;;;;14.56;100.00;97202.81;4892997;29;20577;-66
2022/09/07 05:02:59;;;;;;;7.43;3.78;;;;;;;14.65;100.00;97196.78;4880971;29;20490;-65
2022/09/07 05:05:25;;;;;;;8.38;3.22;;;;;;;14.26;100.00;97206.56;4874973;29;20109;-66
2022/09/07 05:07:52;;;;;;;5.75;2.97;;;;;;;14.17;100.00;97204.41;4870394;29;20052;-65
2022/09/07 05:10:18;;;;;;;8.35;4.78;;;;;;;14.35;100.00;97206.78;4861837;29;20447;-65
2022/09/07 05:12:45;;;;;;;7.85;3.30;;;;;;;14.54;100.00;97205.03;4871387;29;20100;-66
2022/09/07 05:15:12;;;;;;;8.25;3.53;;;;;;;14.63;100.00;97210.69;4881932;29;20037;-65
2022/09/07 05:17:39;;;;;;;7.05;3.47;;;;;;;14.57;100.00;97209.09;4867210;29;20532;-65
2022/09/07 05:20:06;;;;;;;9.32;3.90;;;;;;;14.47;100.00;97204.53;4879895;29;20408;-66
2022/09/07 05:22:34;;;;;;;7.10;3.38;;;;;;;14.49;100.00;97207.75;4866798;29;20064;-66
2022/09/07 05:25:01;;;;;;;7.57;4.05;;;;;;;14.63;100.00;97193.53;4859756;29;20215;-66
2022/09/07 05:27:27;;;;;;;6.90;3.30;;;;;;;14.69;100.00;97200.56;4869000;29;20045;-66
2022/09/07 05:29:54;;;;;;;6.30;3.63;;;;;;;14.67;100.00;97206.31;4857531;29;20285;-66
2022/09/07 05:32:23;;;;;;;8.60;3.97;;;;;;;14.80;100.00;97201.34;4861003;29;20531;-66
2022/09/07 05:34:50;;;;;;;6.95;3.67;;;;;;;14.83;100.00;97212.47;4882352;29;20334;-67
2022/09/07 05:37:18;;;;;;;5.70;3.50;;;;;;;14.70;100.00;97222.09;4860808;29;20053;-66
2022/09/07 05:39:45;;;;;;;6.57;3.08;;;;;;;14.86;100.00;97223.94;4868296;29;20594;-65
2022/09/07 05:42:12;;;;;;;6.35;3.75;;;;;;;15.16;100.00;97231.06;4868199;29;20046;-67
2022/09/07 05:44:39;;;;;;;5.38;3.72;;;;;;;15.34;100.00;97232.25;4877459;29;20040;-66
2022/09/07 05:47:08;;;;;;;9.07;4.13;;;;;;;15.55;100.00;97226.59;4890108;29;20111;-66
2022/09/07 05:49:35;;;;;;;9.82;3.78;;;;;;;15.67;100.00;97225.41;4866877;29;20564;-66
2022/09/07 05:52:02;;;;;;;5.97;3.30;;;;;;;15.74;100.00;97223.97;4874073;29;20105;-66
2022/09/07 05:54:28;;;;;;;6.55;3.50;;;;;;;15.86;100.00;97231.72;4854678;29;20041;-66
2022/09/07 05:56:55;;;;;;;7.00;4.20;;;;;;;15.97;100.00;97224.31;4879868;29;20045;-67
2022/09/07 05:59:21;;;;;;;7.25;4.20;;;;;;;16.15;100.00;97230.09;4870999;29;20513;-66
2022/09/07 06:01:48;;;;;;;8.93;3.80;;;;;;;16.33;100.00;97223.03;4855493;29;20379;-66
2022/09/07 06:04:15;;;;;;;10.07;3.53;;;;;;;16.48;100.00;97218.47;4855022;29;20041;-66
2022/09/07 06:06:41;;;;;;;7.28;3.67;;;;;;;16.61;100.00;97223.19;4854850;29;20056;-66
2022/09/07 06:09:30;;;;;;;7.93;3.20;;;;;;;16.83;100.00;97223.69;4866052;29;20690;-66
2022/09/07 06:11:57;;;;;;;8.18;3.28;;;;;;;17.02;100.00;97226.41;4868972;29;20042;-67
2022/09/07 06:14:23;;;;;;;5.68;3.00;;;;;;;17.19;98.98;97228.66;4854532;29;20525;-67
2022/09/07 06:16:50;;;;;;;9.13;4.00;;;;;;;17.37;97.05;97226.97;4871744;29;20667;-67
2022/09/07 06:19:16;;;;;;;6.78;2.60;;;;;;;17.60;95.96;97229.84;4860870;29;20551;-65
2022/09/07 06:21:43;;;;;;;8.00;3.33;;;;;;;17.77;94.24;97225.72;4855206;29;20527;-66
2022/09/07 06:24:10;;;;;;;4.55;2.60;;;;;;;17.96;93.58;97225.63;4868727;29;20060;-66
2022/09/07 06:26:36;;;;;;;5.88;2.35;;;;;;;18.10;91.47;97220.19;4865596;29;20508;-64
2022/09/07 06:29:03;;;;;;;5.18;2.55;;;;;;;18.27;90.26;97216.00;4870343;29;20049;-65
2022/09/07 06:31:29;;;;;;;4.20;2.58;;;;;;;18.34;89.35;97210.91;4870288;29;20060;-65
2022/09/07 06:33:57;;;;;;;7.13;2.75;;;;;;;18.42;90.23;97212.94;4871549;29;20447;-65
2022/09/07 06:36:26;;;;;;;5.60;2.47;;;;;;;18.45;90.26;97214.25;4870922;29;20048;-66
2022/09/07 06:38:54;;;;;;;4.25;2.10;;;;;;;18.55;90.11;97210.47;4872506;29;20049;-65
2022/09/07 06:41:23;;;;;;;9.23;2.80;;;;;;;18.73;89.32;97208.69;4871609;29;20482;-65
2022/09/07 06:44:11;;;;;;;6.63;2.47;;;;;;;18.93;88.24;97210.16;4854142;29;20094;-66
2022/09/07 06:46:37;;;;;;;5.28;2.42;;;;;;;19.15;86.15;97196.75;4866188;29;20488;-67
2022/09/07 06:49:24;;;;;;;7.30;2.40;;;;;;;19.32;83.76;97207.84;4877833;29;20509;-66
2022/09/07 06:51:51;;;;;;;5.93;2.15;;;;;;;19.52;84.66;97210.38;4882980;29;20056;-66
2022/09/07 06:54:17;;;;;;;5.22;2.40;;;;;;;19.62;82.91;97208.19;4890806;29;20512;-66
2022/09/07 06:57:07;;;;;;;7.13;2.90;;;;;;;19.76;81.76;97218.28;4853836;29;20042;-67
2022/09/07 06:59:36;;;;;;;8.77;2.58;;;;;;;19.77;80.54;97208.91;4853845;29;20045;-66
2022/09/07 07:02:04;;;;;;;5.32;2.20;;;;;;;19.78;80.73;97210.50;4853576;29;20049;-66
2022/09/07 07:04:30;;;;;;;7.40;2.20;;;;;;;19.77;80.39;97206.16;4853003;29;20455;-65
2022/09/07 07:07:01;;;;;;;;;;;;;;;19.88;79.85;97199.25;4854283;29;20680;-66
2022/09/07 07:09:28;;;;;;;6.53;2.22;;;;;;;19.93;80.10;97209.28;4854323;29;19924;-66
2022/09/07 07:11:54;;;;;;;6.43;1.80;;;;;;;19.99;80.09;97205.31;4859538;29;20321;-66
2022/09/07 07:14:21;;;;;;;9.02;2.00;;;;;;;20.07;79.26;97208.38;4872415;29;20461;-66
2022/09/07 07:16:47;;;;;;;5.07;2.10;;;;;;;20.12;79.17;97213.75;4872483;29;20048;-66
2022/09/07 07:19:15;;;;;;;6.68;2.33;;;;;;;20.24;79.46;97224.91;4870229;29;20097;-66
2022/09/07 07:21:41;;;;;;;5.05;2.08;;;;;;;20.30;77.57;97219.28;4882336;29;20420;-65
2022/09/07 07:24:28;;;;;;;6.90;1.83;;;;;;;20.37;78.15;97227.84;4872121;29;20452;-65
2022/09/07 07:26:55;;;;;;;7.53;1.98;;;;;;;20.35;78.01;97238.38;4871840;29;20105;-65
2022/09/07 07:29:21;;;;;;;5.45;2.47;;;;;;;20.25;77.63;97231.22;4872164;29;20053;-66
2022/09/07 07:31:53;;;;;;;4.50;1.85;;;;;;;20.33;77.76;97243.38;4871496;29;20045;-66
2022/09/07 07:34:20;;;;;;;6.95;2.20;;;;;;;20.40;77.44;97244.53;4871766;29;20227;-66
2022/09/07 07:36:46;;;;;;;7.30;2.20;;;;;;;20.48;77.36;97253.94;4875008;29;20440;-66
2022/09/07 07:39:13;;;;;;;8.27;1.92;;;;;;;20.52;77.62;97248.59;4875773;29;20045;-66
2022/09/07 07:41:59;;;;;;;9.77;2.40;;;;;;;20.52;78.10;97252.16;4876593;29;20077;-66
2022/09/07 07:44:30;;;;;;;7.07;2.55;;;;;;;20.57;77.94;97264.97;4875736;29;20492;-66
2022/09/07 07:46:57;;;;;;;7.82;2.03;;;;;;;20.58;76.94;97271.25;4886432;29;20044;-66
2022/09/07 07:49:23;;;;;;;8.02;2.75;;;;;;;20.59;76.28;97265.44;4894890;29;20649;-66
2022/09/07 07:51:53;;;;;;;7.18;2.00;;;;;;;20.61;77.65;97270.63;4893542;29;20088;-66
2022/09/07 07:54:39;;;;;;;7.45;2.03;;;;;;;20.60;77.35;97266.25;4857918;29;20591;-66
2022/09/07 07:57:06;;;;;;;5.93;2.20;;;;;;;20.63;76.37;97265.59;4875335;29;20104;-66
2022/09/07 07:59:34;;;;;;;6.28;2.45;;;;;;;20.90;75.91;97274.75;4875612;29;20049;-66
2022/09/07 08:02:03;;;;;;;4.85;1.98;;;;;;;20.99;74.93;97266.47;4875535;29;20147;-66
2022/09/07 08:04:34;;;;;;;7.20;2.70;;;;;;;21.04;75.51;97275.38;4875020;29;20053;-66
2022/09/07 08:07:01;;;;;;;6.55;1.88;;;;;;;21.05;75.22;97284.47;4875820;29;20073;-66
2022/09/07 08:09:37;;;;;;;8.50;2.10;;;;;;;21.09;74.26;97281.84;4875414;29;20130;-66
2022/09/07 08:12:04;;;;;;;5.97;2.50;;;;;;;21.14;73.53;97278.94;4876734;29;20124;-65
2022/09/07 08:14:30;;;;;;;5.32;2.05;;;;;;;21.14;73.37;97279.75;4875045;29;20148;-66
2022/09/07 08:16:57;;;;;;;9.52;2.67;;;;;;;21.37;73.97;97287.03;4875200;29;20072;-66
2022/09/07 08:19:23;;;;;;;9.27;1.83;;;;;;;21.44;72.67;97285.41;4874996;29;20111;-66
2022/09/07 08:21:50;;;;;;;7.18;2.80;;;;;;;21.48;72.59;97287.50;4868131;29;20120;-66
2022/09/07 08:24:16;;;;;;;3.95;1.90;;;;;;;21.55;72.28;97285.06;4883534;29;20055;-66
2022/09/07 08:26:42;;;;;;;7.78;1.90;;;;;;;21.61;72.64;97288.44;4870612;29;20041;-66
2022/09/07 08:29:09;;;;;;;6.72;1.90;;;;;;;21.60;72.48;97270.31;4880609;29;20508;-66
2022/09/07 08:31:36;;;;;;;4.85;1.92;;;;;;;21.64;72.69;97276.78;4879442;29;20074;-65
2022/09/07 08:34:03;;;;;;;4.40;2.25;;;;;;;21.69;71.67;97271.91;4885464;29;20056;-66
2022/09/07 08:36:30;;;;;;;5.78;1.98;;;;;;;21.90;73.08;97268.50;4881251;29;20734;-65
2022/09/07 08:38:57;;;;;;;7.80;1.90;;;;;;;21.90;70.44;97271.25;4874031;29;20072;-66
2022/09/07 08:41:33;;;;;;;6.75;2.55;;;;;;;21.92;71.44;97279.97;4881063;29;20048;-66
2022/09/07 08:44:11;;;;;;;7.30;2.00;;;;;;;22.02;70.57;97283.50;4876182;29;20108;-67
2022/09/07 08:46:48;;;;;;;6.53;1.95;;;;;;;22.10;69.52;97288.19;4867963;29;20036;-66
2022/09/07 08:49:22;;;;;;;8.60;2.03;;;;;;;22.08;69.56;97293.22;4882660;29;20308;-65
2022/09/07 08:51:56;;;;;;;7.38;2.40;;;;;;;22.08;69.92;97290.47;4879593;29;20532;-66
2022/09/07 08:54:22;;;;;;;6.55;2.28;;;;;;;22.09;69.91;97289.31;4893247;29;20115;-65
2022/09/07 08:56:52;;;;;;;8.15;3.15;;;;;;;22.12;70.34;97290.59;4870825;29;20539;-66
2022/09/07 08:59:45;;;;;;;8.40;2.90;;;;;;;22.16;71.74;97291.56;4882832;29;20508;-66
2022/09/07 09:02:15;;;;;;;4.40;1.75;;;;;;;22.30;71.39;97294.13;4881993;29;20041;-66
2022/09/07 09:05:03;;;;;;;5.85;2.30;;;;;;;22.44;69.72;97291.91;4884889;29;20049;-66
2022/09/07 09:08:26;;;;;;;7.05;2.28;;;;;;;22.47;69.13;97291.25;4892804;29;20424;-66
2022/09/07 09:11:09;;;;;;;6.13;2.20;;;;;;;22.68;69.64;97286.94;4892399;29;20128;-67
2022/09/07 09:13:54;;;;;;;7.35;2.00;;;;;;;22.81;69.60;97283.13;4875821;29;20143;-66
2022/09/07 09:16:42;;;;;;;6.53;1.92;;;;;;;22.71;67.86;97276.03;4874100;29;20501;-65
2022/09/07 09:19:38;;;;;;;5.28;2.00;;;;;;;22.83;67.71;97285.56;4874098;29;20140;-67
2022/09/07 09:22:27;;;;;;;7.88;2.42;;;;;;;22.80;67.05;97275.19;4879800;29;20475;-66
2022/09/07 09:25:04;;;;;;;6.93;2.03;;;;;;;22.95;66.75;97276.53;4870046;29;20048;-65
2022/09/07 09:27:31;;;;;;;5.70;2.15;;;;;;;23.04;66.83;97259.91;4883253;29;20083;-66
2022/09/07 09:29:57;;;;;;;5.47;1.77;;;;;;;23.12;66.52;97267.31;4874550;29;20051;-67
2022/09/07 09:32:33;;;;;;;5.60;1.92;;;;;;;23.12;65.77;97267.31;4874063;29;20424;-65
2022/09/07 09:35:24;;;;;;;7.80;2.25;;;;;;;23.26;66.65;97273.34;4873296;29;20516;-66
2022/09/07 09:37:51;;;;;;;4.43;2.22;;;;;;;23.35;65.84;97272.50;4876268;29;20116;-66
2022/09/07 09:40:24;;;;;;;5.53;2.08;;;;;;;23.43;66.43;97263.31;4890168;29;20052;-66
2022/09/07 09:43:35;;;;;;;4.43;1.70;;;;;;;23.51;65.48;97275.44;4880621;29;20435;-67
2022/09/07 09:46:01;;;;;;;4.55;1.63;;;;;;;23.39;66.77;97259.63;4880211;29;20362;-67
2022/09/07 09:48:51;;;;;;;7.28;2.10;;;;;;;23.18;67.01;97254.91;4877601;29;20183;-67
2022/09/07 09:51:18;;;;;;;4.97;1.67;;;;;;;23.15;67.24;97260.31;4885776;29;20269;-66
2022/09/07 09:54:15;;;;;;;8.15;2.40;;;;;;;23.06;67.16;97263.94;4873588;29;20314;-66
2022/09/07 09:56:44;;;;;;;5.95;2.78;;;;;;;23.05;67.88;97259.56;4877829;29;20475;-66
2022/09/07 09:59:16;;;;;;;4.72;1.88;;;;;;;22.92;68.29;97266.19;4879200;29;20131;-66
2022/09/07 10:02:21;;;;;;;9.18;1.92;;;;;;;22.85;67.59;97258.44;4877047;29;20115;-66
2022/09/07 10:05:39;;;;;;;6.10;2.30;;;;;;;22.83;67.33;97258.78;4855749;29;20053;-66
2022/09/07 10:08:22;;;;;;;10.05;2.42;;;;;;;22.91;67.15;97248.78;4878976;29;20053;-66
2022/09/07 10:11:00;;;;;;;6.60;2.10;;;;;;;22.82;67.67;97245.31;4883969;29;20059;-67
2022/09/07 10:13:28;;;;;;;5.00;1.70;;;;;;;22.93;66.83;97241.00;4883404;29;20452;-66
2022/09/07 10:15:57;;;;;;;7.93;2.28;;;;;;;23.02;67.18;97237.34;4884205;29;20415;-65
2022/09/07 10:18:31;;;;;;;7.80;2.00;;;;;;;23.16;66.80;97228.78;4891697;29;20116;-66
2022/09/07 10:21:30;;;;;;;6.25;1.80;;;;;;;23.32;64.51;97234.47;4876176;29;20077;-66
2022/09/07 10:24:14;;;;;;;6.13;1.95;;;;;;;23.32;64.86;97235.28;4865087;29;20067;-67
2022/09/07 10:26:46;;;;;;;5.85;1.73;;;;;;;23.41;64.14;97228.91;4866342;29;20457;-66
2022/09/07 10:29:21;;;;;;;6.07;2.15;;;;;;;23.56;64.10;97224.69;4872451;29;20037;-65
2022/09/07 10:32:09;;;;;;;7.47;2.40;;;;;;;23.65;63.96;97217.09;4873964;29;20123;-65
2022/09/07 10:34:53;;;;;;;5.32;1.60;;;;;;;23.78;64.70;97217.94;4871245;29;20036;-65
2022/09/07 10:37:29;;;;;;;7.45;2.22;;;;;;;23.92;62.22;97211.25;4882237;29;20588;-65
2022/09/07 10:40:04;;;;;;;8.05;1.88;;;;;;;24.10;61.56;97212.69;4880175;29;20075;-65
2022/09/07 10:42:44;;;;;;;5.47;1.80;;;;;;;24.39;61.36;97208.06;4870129;29;20147;-66
2022/09/07 10:45:50;;;;;;;7.32;2.10;;;;;;;24.57;60.43;97213.31;4865027;29;20049;-65
2022/09/07 10:48:25;;;;;;;4.78;1.80;;;;;;;24.50;61.13;97219.44;4878437;29;20049;-66
2022/09/07 10:50:57;;;;;;;5.18;1.92;;;;;;;24.34;61.14;97208.28;4869779;29;20080;-65
2022/09/07 10:53:54;;;;;;;6.32;1.75;;;;;;;24.31;61.24;97202.63;4871108;29;20049;-65
2022/09/07 10:56:44;;;;;;;8.45;2.75;;;;;;;24.16;60.32;97216.03;4865488;29;20230;-66
2022/09/07 10:59:26;;;;;;;25.85;3.75;;;;;;;24.36;61.60;97213.47;4868521;29;20132;-66
2022/09/07 11:02:18;;;;;;;11.52;2.30;;;;;;;24.56;61.21;97203.41;4871918;29;20077;-66
2022/09/07 11:04:54;;;;;;;8.15;2.25;;;;;;;24.76;60.26;97207.16;4878013;29;20060;-66
2022/09/07 11:07:45;;;;;;;5.90;1.60;;;;;;;24.87;58.40;97201.97;4881594;29;20599;-66
2022/09/07 11:10:27;;;;;;;4.68;1.95;;;;;;;25.06;57.69;97197.78;4885067;29;20041;-66
2022/09/07 11:12:58;;;;;;;5.57;1.73;;;;;;;25.24;57.00;97191.91;4876928;29;20136;-66
2022/09/07 11:15:26;;;;;;;;;;;;;;;25.47;56.42;97178.28;4879092;29;20084;-66
2022/09/07 11:18:16;;;;;;;6.18;1.50;;;;;;;25.44;55.28;97177.03;4882347;29;19930;-65
2022/09/07 11:20:53;;;;;;;6.93;1.60;;;;;;;25.65;54.53;97178.75;4884541;29;20115;-66
2022/09/07 11:23:25;;;;;;;4.75;1.58;;;;;;;25.68;54.56;97180.00;4882707;29;20135;-66
2022/09/07 11:26:11;;;;;;;5.03;2.17;;;;;;;25.71;55.09;97180.09;4880538;29;20067;-65
2022/09/07 11:28:56;;;;;;;7.43;1.80;;;;;;;25.39;55.64;97173.72;4877330;29;20072;-66
2022/09/07 11:31:46;;;;;;;7.10;1.90;;;;;;;25.21;53.54;97179.59;4853060;29;20053;-65
2022/09/07 11:34:37;;;;;;;8.98;2.38;;;;;;;24.98;53.60;97171.03;4853554;29;20604;-66
2022/09/07 11:37:27;;;;;;;6.13;1.73;;;;;;;24.96;55.66;97165.84;4860390;29;20041;-66
2022/09/07 11:40:10;;;;;;;6.68;1.67;;;;;;;25.03;55.42;97168.78;4876009;29;20113;-66
2022/09/07 11:42:45;;;;;;;4.88;1.60;;;;;;;25.10;54.30;97164.63;4861182;29;20048;-66
2022/09/07 11:45:22;;;;;;;21.90;4.57;;;;;;;25.10;52.53;97162.66;4886240;29;20492;-66
2022/09/07 11:47:55;;;;;;;4.82;1.50;;;;;;;25.20;52.45;97155.78;4890279;29;20119;-65
2022/09/07 11:50:22;;;;;;;7.13;1.75;;;;;;;25.41;50.93;97161.09;4873876;29;20059;-66
2022/09/07 11:52:54;;;;;;;4.22;1.30;;;;;;;25.63;49.73;97149.78;4868660;29;20053;-65
2022/09/07 11:55:28;;;;;;;4.13;1.50;;;;;;;25.81;50.74;97141.91;4867393;29;20560;-65
2022/09/07 11:58:25;;;;;;;5.00;1.52;;;;;;;25.83;47.88;97145.13;4873937;29;20408;-66
2022/09/07 12:01:19;;;;;;;5.55;1.40;;;;;;;25.93;48.02;97144.59;4871321;29;20511;-66